sensor_id;sensor_type;location;lat;lon;timestamp;temperature;humidity
25568;DHT22;13455;51.480;7.594;2022-09-13T00:39:05;18.40;99.90
25568;DHT22;13455;51.480;7.594;2022-09-13T04:20:18;18.00;99.90
25568;DHT22;13455;51.480;7.594;2022-09-13T04:22:51;18.00;99.90
25568;DHT22;13455;51.480;7.594;2022-09-13T08:23:25;21.10;99.90
25568;DHT22;13455;51.480;7.594;2022-09-13T08:25:51;21.40;99.90
25568;DHT22;13455;51.480;7.594;2022-09-13T08:28:20;21.40;99.90
25568;DHT22;13455;51.480;7.594;2022-09-13T08:30:46;21.70;99.90
25568;DHT22;13455;51.480;7.594;2022-09-13T08:45:36;22.40;99.90
25568;DHT22;13455;51.480;7.594;2022-09-13T08:48:08;22.50;99.90
25568;DHT22;13455;51.480;7.594;2022-09-13T08:50:37;22.60;99.90
25568;DHT22;13455;51.480;7.594;2022-09-13T09:06:33;23.20;99.90
25568;DHT22;13455;51.480;7.594;2022-09-13T09:29:14;24.00;99.90
25568;DHT22;13455;51.480;7.594;2022-09-13T09:31:57;24.10;99.90
25568;DHT22;13455;51.480;7.594;2022-09-13T09:37:24;24.30;99.90
25568;DHT22;13455;51.480;7.594;2022-09-13T09:45:02;24.50;99.90
25568;DHT22;13455;51.480;7.594;2022-09-13T10:02:43;25.80;99.90
25568;DHT22;13455;51.480;7.594;2022-09-13T10:05:10;25.80;99.90
25568;DHT22;13455;51.480;7.594;2022-09-13T10:12:48;26.20;99.90
25568;DHT22;13455;51.480;7.594;2022-09-13T10:20:26;26.40;99.90
25568;DHT22;13455;51.480;7.594;2022-09-13T10:23:10;26.60;99.90
25568;DHT22;13455;51.480;7.594;2022-09-13T10:25:37;26.60;99.90
25568;DHT22;13455;51.480;7.594;2022-09-13T10:28:04;26.70;99.90
25568;DHT22;13455;51.480;7.594;2022-09-13T10:30:47;26.90;99.90
25568;DHT22;13455;51.480;7.594;2022-09-13T10:35:55;27.10;99.90
25568;DHT22;13455;51.480;7.594;2022-09-13T10:38:31;27.10;99.90
25568;DHT22;13455;51.480;7.594;2022-09-13T10:51:06;27.80;99.90
25568;DHT22;13455;51.480;7.594;2022-09-13T10:53:36;27.80;99.90
25568;DHT22;13455;51.480;7.594;2022-09-13T10:56:03;27.80;99.90
25568;DHT22;13455;51.480;7.594;2022-09-13T10:58:29;27.90;99.90
25568;DHT22;13455;51.480;7.594;2022-09-13T11:01:07;28.10;99.90
25568;DHT22;13455;51.480;7.594;2022-09-13T11:07:03;28.60;98.60
25568;DHT22;13455;51.480;7.594;2022-09-13T11:09:54;28.60;98.40
25568;DHT22;13455;51.480;7.594;2022-09-13T11:12:52;28.70;97.90
25568;DHT22;13455;51.480;7.594;2022-09-13T11:40:22;30.30;94.40
25568;DHT22;13455;51.480;7.594;2022-09-13T11:51:40;30.80;92.90
25568;DHT22;13455;51.480;7.594;2022-09-13T11:59:27;31.50;90.10
25568;DHT22;13455;51.480;7.594;2022-09-13T12:02:02;31.80;88.80
25568;DHT22;13455;51.480;7.594;2022-09-13T12:07:23;32.00;86.30
25568;DHT22;13455;51.480;7.594;2022-09-13T12:10:01;32.00;86.30
25568;DHT22;13455;51.480;7.594;2022-09-13T12:17:43;32.70;81.50
25568;DHT22;13455;51.480;7.594;2022-09-13T12:22:49;33.00;80.60
25568;DHT22;13455;51.480;7.594;2022-09-13T12:25:23;33.00;79.80
25568;DHT22;13455;51.480;7.594;2022-09-13T12:28:05;32.90;79.40
25568;DHT22;13455;51.480;7.594;2022-09-13T12:30:41;32.80;78.50
25568;DHT22;13455;51.480;7.594;2022-09-13T12:33:14;32.80;77.00
25568;DHT22;13455;51.480;7.594;2022-09-13T12:35:56;32.80;77.10
25568;DHT22;13455;51.480;7.594;2022-09-13T12:38:55;32.70;77.50
25568;DHT22;13455;51.480;7.594;2022-09-13T12:53:15;32.80;76.80
25568;DHT22;13455;51.480;7.594;2022-09-13T12:56:02;32.90;76.40
25568;DHT22;13455;51.480;7.594;2022-09-13T13:03:42;32.70;77.60
25568;DHT22;13455;51.480;7.594;2022-09-13T13:08:49;32.80;76.10
25568;DHT22;13455;51.480;7.594;2022-09-13T13:11:19;32.80;76.30
25568;DHT22;13455;51.480;7.594;2022-09-13T13:13:56;32.60;75.80
25568;DHT22;13455;51.480;7.594;2022-09-13T13:18:59;32.60;78.30
25568;DHT22;13455;51.480;7.594;2022-09-13T13:26:48;32.60;77.30
25568;DHT22;13455;51.480;7.594;2022-09-13T13:29:19;32.80;79.40
25568;DHT22;13455;51.480;7.594;2022-09-13T13:39:46;33.80;99.90
25568;DHT22;13455;51.480;7.594;2022-09-13T13:42:22;34.30;73.30
25568;DHT22;13455;51.480;7.594;2022-09-13T14:21:23;34.80;70.20
25568;DHT22;13455;51.480;7.594;2022-09-13T14:23:50;35.20;67.30
25568;DHT22;13455;51.480;7.594;2022-09-13T14:26:16;35.50;66.20
25568;DHT22;13455;51.480;7.594;2022-09-13T14:28:41;35.50;67.10
25568;DHT22;13455;51.480;7.594;2022-09-13T14:31:13;35.50;66.30
25568;DHT22;13455;51.480;7.594;2022-09-13T14:33:40;35.60;64.30
25568;DHT22;13455;51.480;7.594;2022-09-13T14:41:16;35.50;62.60
25568;DHT22;13455;51.480;7.594;2022-09-13T14:43:43;35.20;62.30
25568;DHT22;13455;51.480;7.594;2022-09-13T14:46:27;35.00;79.20
25568;DHT22;13455;51.480;7.594;2022-09-13T14:49:03;35.00;66.20
25568;DHT22;13455;51.480;7.594;2022-09-13T14:51:50;35.10;68.30
25568;DHT22;13455;51.480;7.594;2022-09-13T14:54:20;35.10;73.10
25568;DHT22;13455;51.480;7.594;2022-09-13T14:56:52;34.90;73.60
25568;DHT22;13455;51.480;7.594;2022-09-13T15:01:56;33.70;64.40
25568;DHT22;13455;51.480;7.594;2022-09-13T15:09:35;32.50;69.30
25568;DHT22;13455;51.480;7.594;2022-09-13T15:14:36;32.00;99.30
25568;DHT22;13455;51.480;7.594;2022-09-13T15:22:19;31.20;77.20
25568;DHT22;13455;51.480;7.594;2022-09-13T15:24:51;30.90;78.00
25568;DHT22;13455;51.480;7.594;2022-09-13T15:47:43;31.30;91.30
25568;DHT22;13455;51.480;7.594;2022-09-13T15:50:22;30.90;93.90
25568;DHT22;13455;51.480;7.594;2022-09-13T15:52:48;31.10;99.90
25568;DHT22;13455;51.480;7.594;2022-09-13T16:05:05;29.50;86.10
25568;DHT22;13455;51.480;7.594;2022-09-13T16:09:59;29.20;88.00
25568;DHT22;13455;51.480;7.594;2022-09-13T16:12:25;29.10;89.20
25568;DHT22;13455;51.480;7.594;2022-09-13T16:24:44;28.00;92.10
25568;DHT22;13455;51.480;7.594;2022-09-13T16:29:40;27.90;94.20
25568;DHT22;13455;51.480;7.594;2022-09-13T16:32:06;27.60;94.10
25568;DHT22;13455;51.480;7.594;2022-09-13T16:34:32;27.80;96.20
25568;DHT22;13455;51.480;7.594;2022-09-13T16:36:58;27.40;96.10
25568;DHT22;13455;51.480;7.594;2022-09-13T16:39:23;27.50;97.90
25568;DHT22;13455;51.480;7.594;2022-09-13T16:49:08;26.60;98.70
25568;DHT22;13455;51.480;7.594;2022-09-13T16:51:34;26.40;99.20
25568;DHT22;13455;51.480;7.594;2022-09-13T16:54:01;26.40;99.80
25568;DHT22;13455;51.480;7.594;2022-09-13T17:08:52;25.80;99.90
25568;DHT22;13455;51.480;7.594;2022-09-13T18:03:46;24.20;99.90
25568;DHT22;13455;51.480;7.594;2022-09-13T18:06:12;24.10;99.90
25568;DHT22;13455;51.480;7.594;2022-09-13T18:08:41;24.10;99.90
25568;DHT22;13455;51.480;7.594;2022-09-13T18:11:09;23.90;99.90
25568;DHT22;13455;51.480;7.594;2022-09-13T18:13:36;23.90;99.90
25568;DHT22;13455;51.480;7.594;2022-09-13T18:16:03;23.90;99.90
25568;DHT22;13455;51.480;7.594;2022-09-13T18:18:29;23.80;99.90
25568;DHT22;13455;51.480;7.594;2022-09-13T18:20:56;23.70;99.90
25568;DHT22;13455;51.480;7.594;2022-09-13T18:23:22;23.60;99.90
25568;DHT22;13455;51.480;7.594;2022-09-13T18:28:24;23.60;99.90
25568;DHT22;13455;51.480;7.594;2022-09-13T18:30:53;23.40;99.90
25568;DHT22;13455;51.480;7.594;2022-09-13T18:33:20;23.30;99.90
25568;DHT22;13455;51.480;7.594;2022-09-13T18:38:25;23.30;99.90
25568;DHT22;13455;51.480;7.594;2022-09-13T18:41:03;23.30;99.90
25568;DHT22;13455;51.480;7.594;2022-09-13T21:06:04;20.80;99.90
25568;DHT22;13455;51.480;7.594;2022-09-13T21:08:30;20.70;99.90
25568;DHT22;13455;51.480;7.594;2022-09-13T21:11:13;20.60;99.90
25568;DHT22;13455;51.480;7.594;2022-09-13T21:16:10;20.40;99.90
25568;DHT22;13455;51.480;7.594;2022-09-13T21:18:37;20.30;99.90
25568;DHT22;13455;51.480;7.594;2022-09-13T21:21:04;20.30;99.90
25568;DHT22;13455;51.480;7.594;2022-09-13T21:23:31;20.50;99.90
25568;DHT22;13455;51.480;7.594;2022-09-13T21:26:06;20.40;99.90
25568;DHT22;13455;51.480;7.594;2022-09-13T21:28:33;20.50;99.90
25568;DHT22;13455;51.480;7.594;2022-09-13T21:31:03;20.50;99.90
25568;DHT22;13455;51.480;7.594;2022-09-13T21:33:29;20.30;99.90
25568;DHT22;13455;51.480;7.594;2022-09-13T21:35:57;20.40;99.90
25568;DHT22;13455;51.480;7.594;2022-09-13T21:38:24;20.40;99.90
25568;DHT22;13455;51.480;7.594;2022-09-13T21:40:58;20.20;99.90
25568;DHT22;13455;51.480;7.594;2022-09-13T21:43:25;20.40;99.90
25568;DHT22;13455;51.480;7.594;2022-09-13T21:46:21;20.50;99.90
25568;DHT22;13455;51.480;7.594;2022-09-13T21:48:51;20.30;99.90
25568;DHT22;13455;51.480;7.594;2022-09-13T21:53:52;20.20;99.90
25568;DHT22;13455;51.480;7.594;2022-09-13T21:56:19;20.30;99.90
25568;DHT22;13455;51.480;7.594;2022-09-13T21:59:00;20.00;99.90
25568;DHT22;13455;51.480;7.594;2022-09-13T22:01:31;20.20;99.90
25568;DHT22;13455;51.480;7.594;2022-09-13T22:03:58;20.00;99.90
25568;DHT22;13455;51.480;7.594;2022-09-13T22:06:24;20.20;99.90
25568;DHT22;13455;51.480;7.594;2022-09-13T22:08:51;20.00;99.90
25568;DHT22;13455;51.480;7.594;2022-09-13T22:11:26;20.00;99.90
25568;DHT22;13455;51.480;7.594;2022-09-13T22:13:52;19.80;99.90
25568;DHT22;13455;51.480;7.594;2022-09-13T22:16:19;19.80;99.90
25568;DHT22;13455;51.480;7.594;2022-09-13T22:18:50;19.90;99.90
25568;DHT22;13455;51.480;7.594;2022-09-13T22:21:19;19.80;99.90
25568;DHT22;13455;51.480;7.594;2022-09-13T22:23:45;19.90;99.90
25568;DHT22;13455;51.480;7.594;2022-09-13T22:26:26;20.00;99.90
25568;DHT22;13455;51.480;7.594;2022-09-13T22:28:54;19.70;99.90
25568;DHT22;13455;51.480;7.594;2022-09-13T22:31:34;19.90;99.90
25568;DHT22;13455;51.480;7.594;2022-09-13T22:34:01;19.90;99.90
25568;DHT22;13455;51.480;7.594;2022-09-13T22:36:27;19.60;99.90
25568;DHT22;13455;51.480;7.594;2022-09-13T22:38:53;19.70;99.90
25568;DHT22;13455;51.480;7.594;2022-09-13T22:41:23;19.60;99.90
25568;DHT22;13455;51.480;7.594;2022-09-13T22:43:49;19.80;99.90
25568;DHT22;13455;51.480;7.594;2022-09-13T22:46:20;19.50;99.90
25568;DHT22;13455;51.480;7.594;2022-09-13T22:48:47;19.60;99.90
25568;DHT22;13455;51.480;7.594;2022-09-13T22:51:15;19.40;99.90
25568;DHT22;13455;51.480;7.594;2022-09-13T22:53:42;19.40;99.90
25568;DHT22;13455;51.480;7.594;2022-09-13T22:56:16;19.60;99.90
25568;DHT22;13455;51.480;7.594;2022-09-13T22:58:42;19.40;99.90
25568;DHT22;13455;51.480;7.594;2022-09-13T23:01:16;19.40;99.90
25568;DHT22;13455;51.480;7.594;2022-09-13T23:03:43;19.40;99.90
25568;DHT22;13455;51.480;7.594;2022-09-13T23:06:11;19.20;99.90
25568;DHT22;13455;51.480;7.594;2022-09-13T23:08:38;19.30;99.90
25568;DHT22;13455;51.480;7.594;2022-09-13T23:11:12;19.20;99.90
25568;DHT22;13455;51.480;7.594;2022-09-13T23:13:38;19.20;99.90
25568;DHT22;13455;51.480;7.594;2022-09-13T23:16:06;19.30;99.90
25568;DHT22;13455;51.480;7.594;2022-09-13T23:18:32;19.10;99.90
25568;DHT22;13455;51.480;7.594;2022-09-13T23:20:58;19.10;99.90
25568;DHT22;13455;51.480;7.594;2022-09-13T23:23:25;19.10;99.90
25568;DHT22;13455;51.480;7.594;2022-09-13T23:25:51;19.20;99.90
25568;DHT22;13455;51.480;7.594;2022-09-13T23:28:17;19.20;99.90
25568;DHT22;13455;51.480;7.594;2022-09-13T23:33:09;19.10;99.90
